createdAt,value
2018-06-14T00:00:20.109Z,24.03
2018-06-14T00:02:48.004Z,24.87
2018-06-14T00:05:15.966Z,23.33
2018-06-14T00:07:43.760Z,21.87
2018-06-14T00:10:12.107Z,22.57
2018-06-14T00:12:40.325Z,24.83
2018-06-14T00:15:09.455Z,22.70
2018-06-14T00:17:37.209Z,23.27
2018-06-14T00:20:05.619Z,23.27
2018-06-14T00:22:33.407Z,23.47
2018-06-14T00:25:01.209Z,24.33
2018-06-14T00:27:29.020Z,22.40
2018-06-14T00:29:56.645Z,22.80
2018-06-14T00:32:24.720Z,22.53
2018-06-14T00:34:52.509Z,23.13
2018-06-14T00:37:20.248Z,21.33
2018-06-14T00:39:48.067Z,20.93
2018-06-14T00:42:15.875Z,22.33
2018-06-14T00:44:43.677Z,23.67
2018-06-14T00:47:11.328Z,22.07
2018-06-14T00:49:39.121Z,24.77
2018-06-14T00:52:06.869Z,20.90
2018-06-14T00:54:34.677Z,23.20
2018-06-14T00:57:13.573Z,25.10
2018-06-14T00:59:41.376Z,24.10
2018-06-14T01:02:09.165Z,22.03
2018-06-14T01:04:36.917Z,21.17
2018-06-14T01:07:04.705Z,22.77
2018-06-14T01:09:32.481Z,21.17
2018-06-14T01:12:00.340Z,22.23
2018-06-14T01:14:28.084Z,21.53
2018-06-14T01:16:55.939Z,19.40
2018-06-14T01:19:23.921Z,18.77
2018-06-14T01:21:51.708Z,21.33
2018-06-14T01:24:19.514Z,21.40
2018-06-14T01:26:47.284Z,19.87
2018-06-14T01:29:15.302Z,23.20
2018-06-14T01:31:43.234Z,19.83
2018-06-14T01:34:11.017Z,21.13
2018-06-14T01:36:38.780Z,19.50
2018-06-14T01:39:07.944Z,20.30
2018-06-14T01:41:36.059Z,21.33
2018-06-14T01:44:03.920Z,19.80
2018-06-14T01:46:31.909Z,23.60
2018-06-14T01:48:59.556Z,18.90
2018-06-14T01:51:27.359Z,20.17
2018-06-14T01:53:55.102Z,23.63
2018-06-14T01:56:23.065Z,20.40
2018-06-14T01:58:50.852Z,21.60
2018-06-14T02:01:18.616Z,22.23
2018-06-14T02:03:46.615Z,18.93
2018-06-14T02:06:14.439Z,20.30
2018-06-14T02:08:42.194Z,21.87
2018-06-14T02:11:10.191Z,22.13
2018-06-14T02:13:38.106Z,23.10
2018-06-14T02:16:08.321Z,23.80
2018-06-14T02:18:37.155Z,22.03
2018-06-14T02:21:04.784Z,19.67
2018-06-14T02:23:32.897Z,20.63
2018-06-14T02:26:00.755Z,22.80
2018-06-14T02:28:28.408Z,21.90
2018-06-14T02:30:56.273Z,23.97
2018-06-14T02:33:24.040Z,22.23
2018-06-14T02:35:52.385Z,24.20
2018-06-14T02:38:21.565Z,22.60
2018-06-14T02:40:49.648Z,20.50
2018-06-14T02:43:17.438Z,21.13
2018-06-14T02:45:45.217Z,22.83
2018-06-14T02:48:12.976Z,22.33
2018-06-14T02:50:40.749Z,20.77
2018-06-14T02:53:08.601Z,22.87
2018-06-14T02:55:36.421Z,22.23
2018-06-14T02:58:04.273Z,22.50
2018-06-14T03:00:32.081Z,22.20
2018-06-14T03:03:00.027Z,23.37
2018-06-14T03:05:28.049Z,23.77
2018-06-14T03:07:55.918Z,23.37
2018-06-14T03:10:23.725Z,23.63
2018-06-14T03:12:51.497Z,23.07
2018-06-14T03:15:19.283Z,25.23
2018-06-14T03:17:47.036Z,27.50
2018-06-14T03:20:14.805Z,15.23
2018-06-14T03:22:42.673Z,16.40
2018-06-14T03:25:10.430Z,26.27
2018-06-14T03:27:38.264Z,25.53
2018-06-14T03:30:06.028Z,19.97
2018-06-14T03:32:33.696Z,24.80
2018-06-14T03:35:01.454Z,17.97
2018-06-14T03:37:29.485Z,17.33
2018-06-14T03:39:57.309Z,27.50
2018-06-14T03:42:25.096Z,15.23
2018-06-14T03:44:53.174Z,15.57
2018-06-14T03:47:21.061Z,16.90
2018-06-14T03:49:48.832Z,16.83
2018-06-14T03:52:16.605Z,21.47
2018-06-14T03:54:44.403Z,16.33
2018-06-14T03:57:12.132Z,16.63
2018-06-14T03:59:40.002Z,29.53
2018-06-14T04:02:07.781Z,17.70
2018-06-14T04:04:35.532Z,16.27
2018-06-14T04:07:03.445Z,17.30
2018-06-14T04:09:31.306Z,17.70
2018-06-14T04:11:59.105Z,17.30
2018-06-14T04:14:26.866Z,17.73
2018-06-14T04:16:54.633Z,28.17
2018-06-14T04:19:22.407Z,18.93
2018-06-14T04:21:50.197Z,25.37
2018-06-14T04:24:17.963Z,16.93
2018-06-14T04:26:45.721Z,28.93
2018-06-14T04:29:13.493Z,28.87
2018-06-14T04:31:41.256Z,20.80
2018-06-14T04:34:09.022Z,25.70
2018-06-14T04:36:36.816Z,17.30
2018-06-14T04:39:07.349Z,27.10
2018-06-14T04:41:35.089Z,25.60
2018-06-14T04:44:02.917Z,17.87
2018-06-14T04:46:30.690Z,17.50
2018-06-14T04:48:58.469Z,15.90
2018-06-14T04:51:26.387Z,15.70
2018-06-14T04:53:54.266Z,17.00
2018-06-14T04:56:22.058Z,15.13
2018-06-14T04:58:49.815Z,16.00
2018-06-14T05:01:17.573Z,16.17
2018-06-14T05:03:45.360Z,14.53
2018-06-14T05:06:13.125Z,14.50
2018-06-14T05:08:40.992Z,15.13
2018-06-14T05:11:08.893Z,16.33
2018-06-14T05:13:36.679Z,16.13
2018-06-14T05:16:04.696Z,15.63
2018-06-14T05:18:32.537Z,16.47
2018-06-14T05:21:00.292Z,25.00
2018-06-14T05:23:28.159Z,23.40
2018-06-14T05:25:55.925Z,14.73
2018-06-14T05:28:23.665Z,23.57
2018-06-14T05:30:51.592Z,23.57
2018-06-14T05:33:19.354Z,14.50
2018-06-14T05:35:47.202Z,23.23
2018-06-14T05:38:15.190Z,23.37
2018-06-14T05:40:43.021Z,14.07
2018-06-14T05:43:10.755Z,20.33
2018-06-14T05:45:38.553Z,20.93
2018-06-14T05:48:06.460Z,22.57
2018-06-14T05:50:34.287Z,21.93
2018-06-14T05:53:02.145Z,23.13
2018-06-14T05:55:29.941Z,12.17
2018-06-14T05:57:57.732Z,11.70
2018-06-14T06:00:25.630Z,11.97
2018-06-14T06:02:53.558Z,21.10
2018-06-14T06:05:21.501Z,21.80
2018-06-14T06:07:49.397Z,12.07
2018-06-14T06:10:17.373Z,14.20
2018-06-14T06:12:45.150Z,11.37
2018-06-14T06:15:12.917Z,11.40
2018-06-14T06:17:40.797Z,11.57
2018-06-14T06:20:17.042Z,12.83
2018-06-14T06:22:45.297Z,12.70
2018-06-14T06:25:13.101Z,10.40
2018-06-14T06:27:41.073Z,9.90
2018-06-14T06:30:08.876Z,10.63
2018-06-14T06:32:36.783Z,10.07
2018-06-14T06:35:04.640Z,10.27
2018-06-14T06:37:32.584Z,10.83
2018-06-14T06:40:00.373Z,14.77
2018-06-14T06:42:28.460Z,9.80
2018-06-14T06:44:56.281Z,9.73
2018-06-14T06:47:24.177Z,11.83
2018-06-14T06:49:52.417Z,10.30
2018-06-14T06:52:20.229Z,10.60
2018-06-14T06:54:48.427Z,10.80
2018-06-14T06:57:16.185Z,11.07
2018-06-14T06:59:44.011Z,11.70
2018-06-14T07:02:11.800Z,11.13
2018-06-14T07:04:39.610Z,10.07
2018-06-14T07:07:07.405Z,10.23
2018-06-14T07:09:35.243Z,9.27
2018-06-14T07:12:03.086Z,8.93
2018-06-14T07:14:30.875Z,8.90
2018-06-14T07:16:58.661Z,9.03
2018-06-14T07:19:26.400Z,9.43
2018-06-14T07:21:54.220Z,11.13
2018-06-14T07:24:21.920Z,7.90
2018-06-14T07:26:49.672Z,8.00
2018-06-14T07:29:17.505Z,28.93
2018-06-14T07:31:45.252Z,7.13
2018-06-14T07:34:13.036Z,7.47
2018-06-14T07:36:40.777Z,7.90
2018-06-14T07:39:10.676Z,6.30
2018-06-14T07:41:38.434Z,7.03
2018-06-14T07:44:06.176Z,6.93
2018-06-14T07:46:34.267Z,7.00
2018-06-14T07:49:02.461Z,7.77
2018-06-14T07:51:30.684Z,6.90
2018-06-14T07:53:58.463Z,7.00
2018-06-14T07:56:26.213Z,6.87
2018-06-14T07:58:54.029Z,7.00
2018-06-14T08:01:21.789Z,7.37
2018-06-14T08:03:49.581Z,6.30
2018-06-14T08:06:17.341Z,8.17
2018-06-14T08:08:45.121Z,7.40
2018-06-14T08:11:12.873Z,10.40
2018-06-14T08:13:40.662Z,8.20
2018-06-14T08:16:08.461Z,7.40
2018-06-14T08:18:36.273Z,7.50
2018-06-14T08:21:04.009Z,7.23
2018-06-14T08:23:32.016Z,7.87
2018-06-14T08:25:59.925Z,7.30
2018-06-14T08:28:27.740Z,7.67
2018-06-14T08:30:55.505Z,7.27
2018-06-14T08:33:23.284Z,7.83
2018-06-14T08:35:51.051Z,7.77
2018-06-14T08:38:18.825Z,6.77
2018-06-14T08:40:46.589Z,7.63
2018-06-14T08:43:14.433Z,6.93
2018-06-14T08:45:42.244Z,7.00
2018-06-14T08:48:10.097Z,6.20
2018-06-14T08:50:37.724Z,7.90
2018-06-14T08:53:05.501Z,6.90
2018-06-14T08:55:33.381Z,7.20
2018-06-14T08:58:00.997Z,6.30
2018-06-14T09:00:28.813Z,6.70
2018-06-14T09:02:56.592Z,6.65
2018-06-14T09:05:24.366Z,9.40
2018-06-14T09:07:52.909Z,9.00
2018-06-14T09:10:20.705Z,8.38
2018-06-14T09:12:48.553Z,9.05
2018-06-14T09:15:16.328Z,8.85
2018-06-14T09:17:44.139Z,8.65
2018-06-14T09:20:11.909Z,9.33
2018-06-14T09:22:39.708Z,8.18
2018-06-14T09:25:07.500Z,9.28
2018-06-14T09:27:35.272Z,7.47
2018-06-14T09:30:03.172Z,9.48
2018-06-14T09:32:30.953Z,7.83
2018-06-14T09:34:58.744Z,8.03
2018-06-14T09:37:26.556Z,7.90
2018-06-14T09:39:54.324Z,8.00
2018-06-14T09:42:22.097Z,8.63
2018-06-14T09:44:49.885Z,8.18
2018-06-14T09:47:17.653Z,8.03
2018-06-14T09:49:45.460Z,8.15
2018-06-14T09:52:13.272Z,6.67
2018-06-14T09:54:41.032Z,6.05
2018-06-14T09:57:08.792Z,7.28
2018-06-14T09:59:36.549Z,7.17
2018-06-14T10:02:04.439Z,7.00
2018-06-14T10:04:32.269Z,6.92
2018-06-14T10:07:00.031Z,6.80
2018-06-14T10:09:27.824Z,7.70
2018-06-14T10:11:55.617Z,7.10
2018-06-14T10:14:23.405Z,7.25
2018-06-14T10:16:51.228Z,7.30
2018-06-14T10:19:19.029Z,6.67
2018-06-14T10:21:46.809Z,7.57
2018-06-14T10:24:14.573Z,7.03
2018-06-14T10:26:42.361Z,9.03
2018-06-14T10:29:10.121Z,6.57
2018-06-14T10:31:37.913Z,8.27
2018-06-14T10:34:05.697Z,7.13
2018-06-14T10:36:33.511Z,7.80
2018-06-14T10:39:01.330Z,6.70
2018-06-14T10:41:29.101Z,6.03
2018-06-14T10:43:56.853Z,5.97
2018-06-14T10:46:24.646Z,7.67
2018-06-14T10:48:52.446Z,7.27
2018-06-14T10:51:20.180Z,6.97
2018-06-14T10:53:47.945Z,6.37
2018-06-14T10:56:15.729Z,6.37
2018-06-14T10:58:43.509Z,7.67
2018-06-14T11:01:11.249Z,6.40
2018-06-14T11:03:39.027Z,6.13
2018-06-14T11:06:06.792Z,5.23
2018-06-14T11:08:34.560Z,6.20
2018-06-14T11:11:02.341Z,6.93
2018-06-14T11:13:30.090Z,5.93
2018-06-14T11:15:57.847Z,5.30
2018-06-14T11:18:25.618Z,5.60
2018-06-14T11:20:53.538Z,4.97
2018-06-14T11:23:21.298Z,5.10
2018-06-14T11:25:49.060Z,4.47
2018-06-14T11:28:16.877Z,5.10
2018-06-14T11:30:44.645Z,5.00
2018-06-14T11:33:12.465Z,5.83
2018-06-14T11:35:40.100Z,4.70
2018-06-14T11:38:07.860Z,4.87
2018-06-14T11:40:35.640Z,5.97
2018-06-14T11:43:03.452Z,5.00
2018-06-14T11:45:31.229Z,4.33
2018-06-14T11:47:59.040Z,4.10
2018-06-14T11:50:26.794Z,4.53
2018-06-14T11:52:54.408Z,3.60
2018-06-14T11:55:22.186Z,3.83
2018-06-14T11:57:49.928Z,5.27
2018-06-14T12:00:17.712Z,4.27
2018-06-14T12:02:45.509Z,4.30
2018-06-14T12:05:13.296Z,3.80
2018-06-14T12:07:41.048Z,5.47
2018-06-14T12:10:08.828Z,5.77
2018-06-14T12:12:36.573Z,5.00
2018-06-14T12:15:04.380Z,6.67
2018-06-14T12:17:32.133Z,4.10
2018-06-14T12:19:59.908Z,4.03
2018-06-14T12:22:27.653Z,4.17
2018-06-14T12:24:55.433Z,4.07
2018-06-14T12:27:23.227Z,4.23
2018-06-14T12:29:51.005Z,4.30
2018-06-14T12:32:18.793Z,4.77
2018-06-14T12:34:46.556Z,3.77
2018-06-14T12:37:14.340Z,6.77
2018-06-14T12:39:42.120Z,4.07
2018-06-14T12:42:09.745Z,6.03
2018-06-14T12:44:37.513Z,4.60
2018-06-14T12:47:05.313Z,5.60
2018-06-14T12:49:33.088Z,4.93
2018-06-14T12:52:00.844Z,6.50
2018-06-14T12:54:28.616Z,4.63
2018-06-14T12:56:56.385Z,6.07
2018-06-14T12:59:24.177Z,4.30
2018-06-14T13:01:51.985Z,4.73
2018-06-14T13:04:19.806Z,3.83
2018-06-14T13:06:47.573Z,4.50
2018-06-14T13:09:15.411Z,5.03
2018-06-14T13:11:43.016Z,5.37
2018-06-14T13:14:11.228Z,5.10
2018-06-14T13:16:39.020Z,4.53
2018-06-14T13:19:06.768Z,4.47
2018-06-14T13:21:34.400Z,4.83
2018-06-14T13:24:02.208Z,4.57
2018-06-14T13:26:29.973Z,22.53
2018-06-14T13:28:57.728Z,6.57
2018-06-14T13:31:25.377Z,6.13
2018-06-14T13:33:53.191Z,25.17
2018-06-14T13:36:21.012Z,4.43
2018-06-14T13:38:48.624Z,4.83
2018-06-14T13:41:16.404Z,4.63
2018-06-14T13:43:44.213Z,4.47
2018-06-14T13:46:12.007Z,3.93
2018-06-14T13:48:39.845Z,4.00
2018-06-14T13:51:07.568Z,3.50
2018-06-14T13:53:35.335Z,5.27
2018-06-14T13:56:03.189Z,4.27
2018-06-14T13:58:30.964Z,4.93
2018-06-14T14:00:58.795Z,5.07
2018-06-14T14:03:26.659Z,3.30
2018-06-14T14:05:54.460Z,5.30
2018-06-14T14:08:22.257Z,4.40
2018-06-14T14:10:49.988Z,3.10
2018-06-14T14:13:17.786Z,4.10
2018-06-14T14:15:45.464Z,3.10
2018-06-14T14:18:13.271Z,3.43
2018-06-14T14:20:41.345Z,3.50
2018-06-14T14:23:09.636Z,3.93
2018-06-14T14:25:37.449Z,3.30
2018-06-14T14:28:05.345Z,3.00
2018-06-14T14:30:33.120Z,3.50
2018-06-14T14:33:00.898Z,3.87
2018-06-14T14:35:28.684Z,4.13
2018-06-14T14:37:56.501Z,3.00
2018-06-14T14:40:24.288Z,3.17
2018-06-14T14:42:52.081Z,2.80
2018-06-14T14:45:19.901Z,2.73
2018-06-14T14:47:47.829Z,3.63
2018-06-14T14:50:15.589Z,3.67
2018-06-14T14:52:43.389Z,4.63
2018-06-14T14:55:11.155Z,3.87
2018-06-14T14:57:38.957Z,3.43
2018-06-14T15:00:06.758Z,2.40
2018-06-14T15:02:34.569Z,2.87
2018-06-14T15:05:02.388Z,2.50
2018-06-14T15:07:30.256Z,2.97
2018-06-14T15:09:58.012Z,3.67
2018-06-14T15:12:25.649Z,2.43
2018-06-14T15:14:53.429Z,2.40
2018-06-14T15:17:21.230Z,2.30
2018-06-14T15:19:49.420Z,3.50
2018-06-14T15:22:17.140Z,3.40
2018-06-14T15:24:44.909Z,2.43
2018-06-14T15:27:12.540Z,2.63
2018-06-14T15:29:41.084Z,3.87
2018-06-14T15:32:08.886Z,6.90
2018-06-14T15:34:36.657Z,2.63
2018-06-14T15:37:04.506Z,2.40
2018-06-14T15:39:32.357Z,3.57
2018-06-14T15:42:00.141Z,2.47
2018-06-14T15:44:27.897Z,2.67
2018-06-14T15:46:55.692Z,3.00
2018-06-14T15:49:23.568Z,3.77
2018-06-14T15:51:51.365Z,3.30
2018-06-14T15:54:19.197Z,2.00
2018-06-14T15:56:46.964Z,2.10
2018-06-14T15:59:15.630Z,1.93
2018-06-14T16:01:43.429Z,2.27
2018-06-14T16:04:11.334Z,2.87
2018-06-14T16:06:39.125Z,3.10
2018-06-14T16:09:10.213Z,2.90
2018-06-14T16:11:40.800Z,3.00
2018-06-14T16:14:08.580Z,3.30
2018-06-14T16:16:36.361Z,3.30
2018-06-14T16:19:04.425Z,4.03
2018-06-14T16:21:32.199Z,2.63
2018-06-14T16:23:59.975Z,2.93
2018-06-14T16:26:27.745Z,3.80
2018-06-14T16:28:55.554Z,2.30
2018-06-14T16:31:23.997Z,3.80
2018-06-14T16:33:51.843Z,2.63
2018-06-14T16:36:19.644Z,3.70
2018-06-14T16:38:47.436Z,2.33
2018-06-14T16:41:15.277Z,3.73
2018-06-14T16:43:43.046Z,2.40
2018-06-14T16:46:10.898Z,3.50
2018-06-14T16:48:38.688Z,3.67
2018-06-14T16:51:06.578Z,3.00
2018-06-14T16:53:34.335Z,2.60
2018-06-14T16:56:02.165Z,2.60
2018-06-14T16:58:29.909Z,3.53
2018-06-14T17:00:57.693Z,2.90
2018-06-14T17:03:25.489Z,2.50
2018-06-14T17:09:05.913Z,2.80
2018-06-14T17:17:29.380Z,2.33
2018-06-14T17:19:56.999Z,2.80
2018-06-14T17:22:24.803Z,3.03
2018-06-14T17:24:52.561Z,2.60
2018-06-14T17:27:20.305Z,3.50
2018-06-14T17:29:48.081Z,3.40
2018-06-14T17:32:17.953Z,2.90
2018-06-14T17:34:45.733Z,3.63
2018-06-14T17:37:17.605Z,3.20
2018-06-14T17:39:45.465Z,2.60
2018-06-14T17:42:13.305Z,3.40
2018-06-14T17:44:41.093Z,2.80
2018-06-14T17:47:08.881Z,2.80
2018-06-14T17:49:36.637Z,3.97
2018-06-14T17:52:04.445Z,3.17
2018-06-14T17:54:32.309Z,2.77
2018-06-14T17:57:00.130Z,3.00
2018-06-14T17:59:27.757Z,3.83
2018-06-14T18:01:55.589Z,2.97
2018-06-14T18:04:23.674Z,2.57
2018-06-14T18:06:51.921Z,2.60
2018-06-14T18:09:20.769Z,2.93
2018-06-14T18:11:48.965Z,3.10
2018-06-14T18:14:17.381Z,2.70
2018-06-14T18:16:45.554Z,4.37
2018-06-14T18:19:13.853Z,3.70
2018-06-14T18:21:41.724Z,3.77
2018-06-14T18:24:09.464Z,3.23
2018-06-14T18:26:37.249Z,3.10
2018-06-14T18:29:05.077Z,3.53
2018-06-14T18:31:32.917Z,2.80
2018-06-14T18:34:00.673Z,3.33
2018-06-14T18:36:28.419Z,3.73
2018-06-14T18:38:56.233Z,2.70
2018-06-14T18:41:24.010Z,3.13
2018-06-14T18:43:51.778Z,3.93
2018-06-14T18:46:20.473Z,3.90
2018-06-14T18:48:48.257Z,5.90
2018-06-14T18:51:16.065Z,2.60
2018-06-14T18:53:43.827Z,3.73
2018-06-14T18:56:11.565Z,2.83
2018-06-14T18:58:39.351Z,3.30
2018-06-14T19:01:07.183Z,2.73
2018-06-14T19:03:34.989Z,3.17
2018-06-14T19:06:02.616Z,3.40
2018-06-14T19:08:30.417Z,2.83
2018-06-14T19:10:58.180Z,2.90
2018-06-14T19:13:25.952Z,4.33
2018-06-14T19:15:54.241Z,3.43
2018-06-14T19:18:22.556Z,7.53
2018-06-14T19:20:50.758Z,3.70
2018-06-14T19:23:19.090Z,4.73
2018-06-14T19:25:47.148Z,4.90
2018-06-14T19:28:14.932Z,3.67
2018-06-14T19:30:42.711Z,3.77
2018-06-14T19:33:10.626Z,5.33
2018-06-14T19:35:38.400Z,5.60
2018-06-14T19:38:06.184Z,3.40
2018-06-14T19:40:33.945Z,7.07
2018-06-14T19:43:01.733Z,4.47
2018-06-14T19:45:29.553Z,3.53
2018-06-14T19:47:57.353Z,4.70
2018-06-14T19:50:25.131Z,8.03
2018-06-14T19:52:53.077Z,3.57
2018-06-14T19:55:20.901Z,6.40
2018-06-14T19:57:48.677Z,4.93
2018-06-14T20:00:16.446Z,7.47
2018-06-14T20:02:45.101Z,5.43
2018-06-14T20:05:12.892Z,3.43
2018-06-14T20:07:40.661Z,4.00
2018-06-14T20:10:08.436Z,4.93
2018-06-14T20:12:36.221Z,5.80
2018-06-14T20:15:04.078Z,4.37
2018-06-14T20:17:31.843Z,3.77
2018-06-14T20:19:59.671Z,4.03
2018-06-14T20:22:27.330Z,3.83
2018-06-14T20:24:56.350Z,4.17
2018-06-14T20:27:24.701Z,3.97
2018-06-14T20:29:52.829Z,4.20
2018-06-14T20:32:21.149Z,5.37
2018-06-14T20:34:49.619Z,3.70
2018-06-14T20:37:17.805Z,3.57
2018-06-14T20:39:46.001Z,4.87
2018-06-14T20:42:14.216Z,4.43
2018-06-14T20:44:42.406Z,4.43
2018-06-14T20:47:10.673Z,3.27
2018-06-14T20:49:38.841Z,3.30
2018-06-14T20:52:07.223Z,4.47
2018-06-14T20:54:35.364Z,4.13
2018-06-14T20:57:03.570Z,3.43
2018-06-14T20:59:32.063Z,4.67
2018-06-14T21:02:01.566Z,4.03
2018-06-14T21:04:29.859Z,4.67
2018-06-14T21:06:57.899Z,3.97
2018-06-14T21:09:26.053Z,4.23
2018-06-14T21:11:54.275Z,14.73
2018-06-14T21:14:22.457Z,4.67
2018-06-14T21:16:50.504Z,4.33
2018-06-14T21:19:18.729Z,3.87
2018-06-14T21:21:46.938Z,5.87
2018-06-14T21:24:15.213Z,4.53
2018-06-14T21:26:43.486Z,4.10
2018-06-14T21:29:11.668Z,4.50
2018-06-14T21:31:39.866Z,3.50
2018-06-14T21:34:08.039Z,3.43
2018-06-14T21:36:36.266Z,3.47
2018-06-14T21:39:06.700Z,5.10
2018-06-14T21:41:34.889Z,4.50
2018-06-14T21:44:03.224Z,3.67
2018-06-14T21:46:31.751Z,3.50
2018-06-14T21:48:59.791Z,5.10
2018-06-14T21:51:27.776Z,4.70
2018-06-14T21:53:55.981Z,3.37
2018-06-14T21:56:24.606Z,3.50
2018-06-14T21:58:52.421Z,4.50
2018-06-14T22:01:20.174Z,4.97
2018-06-14T22:03:53.603Z,3.57
2018-06-14T22:06:21.797Z,3.93
2018-06-14T22:08:49.666Z,3.40
2018-06-14T22:11:17.873Z,3.63
2018-06-14T22:13:45.659Z,3.80
2018-06-14T22:16:13.529Z,3.67
2018-06-14T22:18:41.288Z,5.33
2018-06-14T22:21:09.063Z,4.47
2018-06-14T22:23:36.897Z,3.77
2018-06-14T22:26:04.813Z,4.03
2018-06-14T22:28:32.732Z,5.23
2018-06-14T22:31:00.620Z,5.77
2018-06-14T22:35:37.685Z,3.97
2018-06-14T22:38:05.820Z,4.30
2018-06-14T22:40:33.652Z,5.17
2018-06-14T22:43:01.493Z,4.60
2018-06-14T22:45:29.280Z,4.67
2018-06-14T22:47:57.061Z,4.83
2018-06-14T22:50:36.164Z,4.33
2018-06-14T22:53:06.985Z,5.63
2018-06-14T22:55:34.791Z,4.37
2018-06-14T22:58:02.647Z,4.73
2018-06-14T23:01:47.545Z,4.20
2018-06-14T23:04:17.533Z,4.00
2018-06-14T23:06:45.316Z,3.90
2018-06-14T23:10:25.340Z,5.50
2018-06-14T23:12:53.266Z,5.80
2018-06-14T23:15:21.297Z,6.77
2018-06-14T23:17:49.613Z,4.03
2018-06-14T23:20:20.420Z,4.13
2018-06-14T23:22:49.150Z,5.10
2018-06-14T23:25:17.809Z,4.53
2018-06-14T23:27:45.593Z,5.23
2018-06-14T23:30:13.357Z,4.40
2018-06-14T23:32:41.154Z,12.90
2018-06-14T23:35:08.896Z,5.07
2018-06-14T23:37:36.681Z,3.80
2018-06-14T23:40:04.721Z,4.73
2018-06-14T23:42:32.493Z,4.53
2018-06-14T23:45:00.261Z,4.80
2018-06-14T23:47:28.122Z,13.93
2018-06-14T23:49:56.273Z,3.63
2018-06-14T23:52:24.070Z,4.33
2018-06-14T23:54:51.840Z,3.90
2018-06-14T23:57:19.773Z,3.83
2018-06-14T23:59:47.812Z,4.13
